sensor_id;sensor_type;location;lat;lon;timestamp;pressure;altitude;pressure_sealevel;temperature;humidity
16355;BME280;8287;51.644;8.494;2024-02-04T00:01:57;100974.75;;;12.39;100.00
16355;BME280;8287;51.644;8.494;2024-02-04T00:04:25;100974.88;;;12.34;100.00
16355;BME280;8287;51.644;8.494;2024-02-04T00:06:52;100972.53;;;12.32;100.00
16355;BME280;8287;51.644;8.494;2024-02-04T00:09:19;100964.44;;;12.37;100.00
16355;BME280;8287;51.644;8.494;2024-02-04T00:11:45;100969.25;;;12.35;100.00
16355;BME280;8287;51.644;8.494;2024-02-04T00:14:12;100950.47;;;12.32;100.00
16355;BME280;8287;51.644;8.494;2024-02-04T00:16:39;100963.34;;;12.38;100.00
16355;BME280;8287;51.644;8.494;2024-02-04T00:19:05;100973.06;;;12.43;100.00
16355;BME280;8287;51.644;8.494;2024-02-04T00:21:35;100956.94;;;12.39;100.00
16355;BME280;8287;51.644;8.494;2024-02-04T00:24:02;100953.50;;;12.39;100.00
16355;BME280;8287;51.644;8.494;2024-02-04T00:26:28;100949.38;;;12.33;100.00
16355;BME280;8287;51.644;8.494;2024-02-04T00:28:55;100954.28;;;12.39;100.00
16355;BME280;8287;51.644;8.494;2024-02-04T00:31:22;100941.78;;;12.40;100.00
16355;BME280;8287;51.644;8.494;2024-02-04T00:33:48;100933.53;;;12.41;100.00
16355;BME280;8287;51.644;8.494;2024-02-04T00:36:15;100959.00;;;12.42;100.00
16355;BME280;8287;51.644;8.494;2024-02-04T00:38:44;100945.41;;;12.44;100.00
16355;BME280;8287;51.644;8.494;2024-02-04T00:41:11;100937.44;;;12.44;100.00
16355;BME280;8287;51.644;8.494;2024-02-04T00:43:37;100932.81;;;12.49;100.00
16355;BME280;8287;51.644;8.494;2024-02-04T00:46:04;100929.81;;;12.51;100.00
16355;BME280;8287;51.644;8.494;2024-02-04T00:48:30;100920.91;;;12.47;100.00
16355;BME280;8287;51.644;8.494;2024-02-04T00:50:58;100910.84;;;12.44;100.00
16355;BME280;8287;51.644;8.494;2024-02-04T00:53:24;100907.25;;;12.40;100.00
16355;BME280;8287;51.644;8.494;2024-02-04T00:55:54;100909.22;;;12.34;100.00
16355;BME280;8287;51.644;8.494;2024-02-04T00:58:21;100908.91;;;12.36;100.00
16355;BME280;8287;51.644;8.494;2024-02-04T01:00:47;100901.53;;;12.33;100.00
16355;BME280;8287;51.644;8.494;2024-02-04T01:03:14;100910.50;;;12.37;100.00
16355;BME280;8287;51.644;8.494;2024-02-04T01:05:41;100919.84;;;12.34;100.00
16355;BME280;8287;51.644;8.494;2024-02-04T01:08:08;100918.59;;;12.32;100.00
16355;BME280;8287;51.644;8.494;2024-02-04T01:10:34;100925.00;;;12.31;100.00
16355;BME280;8287;51.644;8.494;2024-02-04T01:13:03;100921.84;;;12.29;100.00
16355;BME280;8287;51.644;8.494;2024-02-04T01:15:29;100911.94;;;12.21;100.00
16355;BME280;8287;51.644;8.494;2024-02-04T01:17:56;100913.31;;;12.18;100.00
16355;BME280;8287;51.644;8.494;2024-02-04T01:20:23;100910.94;;;12.17;100.00
16355;BME280;8287;51.644;8.494;2024-02-04T01:22:49;100910.19;;;12.16;100.00
16355;BME280;8287;51.644;8.494;2024-02-04T01:25:16;100912.91;;;12.25;100.00
16355;BME280;8287;51.644;8.494;2024-02-04T01:27:42;100908.66;;;12.24;100.00
16355;BME280;8287;51.644;8.494;2024-02-04T01:30:11;100911.69;;;12.31;100.00
16355;BME280;8287;51.644;8.494;2024-02-04T01:32:37;100917.31;;;12.29;100.00
16355;BME280;8287;51.644;8.494;2024-02-04T01:35:05;100916.88;;;12.36;100.00
16355;BME280;8287;51.644;8.494;2024-02-04T01:37:31;100913.56;;;12.30;100.00
16355;BME280;8287;51.644;8.494;2024-02-04T01:39:58;100920.63;;;12.35;100.00
16355;BME280;8287;51.644;8.494;2024-02-04T01:42:24;100917.78;;;12.31;100.00
16355;BME280;8287;51.644;8.494;2024-02-04T01:44:51;100921.44;;;12.35;100.00
16355;BME280;8287;51.644;8.494;2024-02-04T01:47:19;100919.66;;;12.31;100.00
16355;BME280;8287;51.644;8.494;2024-02-04T01:49:46;100909.47;;;12.24;100.00
16355;BME280;8287;51.644;8.494;2024-02-04T01:52:13;100910.22;;;12.25;100.00
16355;BME280;8287;51.644;8.494;2024-02-04T01:54:40;100918.34;;;12.20;100.00
16355;BME280;8287;51.644;8.494;2024-02-04T01:57:09;100913.59;;;12.17;100.00
16355;BME280;8287;51.644;8.494;2024-02-04T01:59:39;100906.16;;;12.05;100.00
16355;BME280;8287;51.644;8.494;2024-02-04T02:02:06;100910.09;;;12.08;100.00
16355;BME280;8287;51.644;8.494;2024-02-04T02:04:34;100908.03;;;12.05;100.00
16355;BME280;8287;51.644;8.494;2024-02-04T02:07:01;100904.91;;;12.03;100.00
16355;BME280;8287;51.644;8.494;2024-02-04T02:09:28;100907.56;;;12.03;100.00
16355;BME280;8287;51.644;8.494;2024-02-04T02:12:00;100900.56;;;12.07;100.00
16355;BME280;8287;51.644;8.494;2024-02-04T02:14:30;100908.53;;;12.07;100.00
16355;BME280;8287;51.644;8.494;2024-02-04T02:17:01;100901.22;;;12.12;100.00
16355;BME280;8287;51.644;8.494;2024-02-04T02:19:40;100889.69;;;12.17;100.00
16355;BME280;8287;51.644;8.494;2024-02-04T02:22:17;100891.63;;;12.03;100.00
16355;BME280;8287;51.644;8.494;2024-02-04T02:24:51;100897.81;;;12.12;100.00
16355;BME280;8287;51.644;8.494;2024-02-04T02:27:17;100900.47;;;12.12;100.00
16355;BME280;8287;51.644;8.494;2024-02-04T02:29:44;100899.94;;;12.10;100.00
16355;BME280;8287;51.644;8.494;2024-02-04T02:32:11;100885.56;;;12.11;100.00
16355;BME280;8287;51.644;8.494;2024-02-04T02:34:37;100888.22;;;12.11;100.00
16355;BME280;8287;51.644;8.494;2024-02-04T02:37:10;100893.38;;;12.07;100.00
16355;BME280;8287;51.644;8.494;2024-02-04T02:39:44;100883.72;;;12.11;100.00
16355;BME280;8287;51.644;8.494;2024-02-04T02:42:14;100882.34;;;12.14;100.00
16355;BME280;8287;51.644;8.494;2024-02-04T02:44:42;100877.03;;;12.14;100.00
16355;BME280;8287;51.644;8.494;2024-02-04T02:47:10;100880.25;;;12.11;100.00
16355;BME280;8287;51.644;8.494;2024-02-04T02:49:37;100871.81;;;12.09;100.00
16355;BME280;8287;51.644;8.494;2024-02-04T02:52:04;100869.34;;;12.12;100.00
16355;BME280;8287;51.644;8.494;2024-02-04T02:54:31;100874.06;;;12.15;100.00
16355;BME280;8287;51.644;8.494;2024-02-04T02:56:58;100869.97;;;12.09;100.00
16355;BME280;8287;51.644;8.494;2024-02-04T02:59:25;100873.38;;;12.10;100.00
16355;BME280;8287;51.644;8.494;2024-02-04T03:01:52;100865.22;;;12.06;100.00
16355;BME280;8287;51.644;8.494;2024-02-04T03:04:18;100855.41;;;12.07;100.00
16355;BME280;8287;51.644;8.494;2024-02-04T03:06:45;100856.06;;;12.12;100.00
16355;BME280;8287;51.644;8.494;2024-02-04T03:09:11;100845.19;;;12.00;100.00
16355;BME280;8287;51.644;8.494;2024-02-04T03:11:38;100839.47;;;12.07;100.00
16355;BME280;8287;51.644;8.494;2024-02-04T03:14:05;100847.44;;;12.07;100.00
16355;BME280;8287;51.644;8.494;2024-02-04T03:16:32;100858.53;;;12.09;100.00
16355;BME280;8287;51.644;8.494;2024-02-04T03:18:59;100868.25;;;12.13;100.00
16355;BME280;8287;51.644;8.494;2024-02-04T03:21:26;100856.34;;;12.11;100.00
16355;BME280;8287;51.644;8.494;2024-02-04T03:23:52;100859.16;;;12.06;100.00
16355;BME280;8287;51.644;8.494;2024-02-04T03:26:19;100854.13;;;12.04;100.00
16355;BME280;8287;51.644;8.494;2024-02-04T03:28:45;100858.34;;;12.05;100.00
16355;BME280;8287;51.644;8.494;2024-02-04T03:31:12;100854.44;;;12.03;100.00
16355;BME280;8287;51.644;8.494;2024-02-04T03:33:47;100855.16;;;11.95;100.00
16355;BME280;8287;51.644;8.494;2024-02-04T03:36:15;100849.59;;;12.05;100.00
16355;BME280;8287;51.644;8.494;2024-02-04T03:38:42;100856.59;;;12.01;100.00
16355;BME280;8287;51.644;8.494;2024-02-04T03:41:08;100863.19;;;12.03;100.00
16355;BME280;8287;51.644;8.494;2024-02-04T03:43:35;100865.22;;;12.06;100.00
16355;BME280;8287;51.644;8.494;2024-02-04T03:46:02;100850.00;;;11.98;100.00
16355;BME280;8287;51.644;8.494;2024-02-04T03:48:29;100864.88;;;11.99;100.00
16355;BME280;8287;51.644;8.494;2024-02-04T03:50:57;100865.06;;;12.03;100.00
16355;BME280;8287;51.644;8.494;2024-02-04T03:53:23;100865.34;;;12.01;100.00
16355;BME280;8287;51.644;8.494;2024-02-04T03:55:50;100860.63;;;11.98;100.00
16355;BME280;8287;51.644;8.494;2024-02-04T03:58:17;100851.19;;;12.06;100.00
16355;BME280;8287;51.644;8.494;2024-02-04T04:00:43;100864.47;;;12.06;100.00
16355;BME280;8287;51.644;8.494;2024-02-04T04:03:10;100859.75;;;12.03;100.00
16355;BME280;8287;51.644;8.494;2024-02-04T04:05:36;100862.88;;;12.05;100.00
16355;BME280;8287;51.644;8.494;2024-02-04T04:08:05;100859.53;;;12.13;100.00
16355;BME280;8287;51.644;8.494;2024-02-04T04:10:32;100853.13;;;12.14;100.00
16355;BME280;8287;51.644;8.494;2024-02-04T04:12:58;100852.63;;;12.12;100.00
16355;BME280;8287;51.644;8.494;2024-02-04T04:15:25;100843.78;;;12.16;100.00
16355;BME280;8287;51.644;8.494;2024-02-04T04:17:51;100853.69;;;12.11;100.00
16355;BME280;8287;51.644;8.494;2024-02-04T04:20:18;100850.56;;;12.09;100.00
16355;BME280;8287;51.644;8.494;2024-02-04T04:22:44;100855.16;;;11.95;100.00
16355;BME280;8287;51.644;8.494;2024-02-04T04:25:13;100857.81;;;11.95;100.00
16355;BME280;8287;51.644;8.494;2024-02-04T04:27:40;100863.13;;;11.95;100.00
16355;BME280;8287;51.644;8.494;2024-02-04T04:30:07;100868.13;;;11.96;100.00
16355;BME280;8287;51.644;8.494;2024-02-04T04:32:34;100866.84;;;11.94;100.00
16355;BME280;8287;51.644;8.494;2024-02-04T04:35:00;100875.31;;;11.96;100.00
16355;BME280;8287;51.644;8.494;2024-02-04T04:37:27;100872.34;;;11.97;100.00
16355;BME280;8287;51.644;8.494;2024-02-04T04:39:54;100883.28;;;11.96;100.00
16355;BME280;8287;51.644;8.494;2024-02-04T04:42:22;100888.88;;;11.94;100.00
16355;BME280;8287;51.644;8.494;2024-02-04T04:44:48;100889.69;;;11.95;100.00
16355;BME280;8287;51.644;8.494;2024-02-04T04:47:15;100888.09;;;11.94;100.00
16355;BME280;8287;51.644;8.494;2024-02-04T04:49:41;100886.69;;;11.96;100.00
16355;BME280;8287;51.644;8.494;2024-02-04T04:52:08;100894.19;;;11.94;100.00
16355;BME280;8287;51.644;8.494;2024-02-04T04:54:34;100892.69;;;12.02;100.00
16355;BME280;8287;51.644;8.494;2024-02-04T04:57:01;100892.69;;;12.02;100.00
16355;BME280;8287;51.644;8.494;2024-02-04T04:59:29;100888.28;;;11.97;100.00
16355;BME280;8287;51.644;8.494;2024-02-04T05:01:55;100870.38;;;12.03;100.00
16355;BME280;8287;51.644;8.494;2024-02-04T05:04:22;100872.53;;;12.01;100.00
16355;BME280;8287;51.644;8.494;2024-02-04T05:06:50;100878.22;;;12.08;100.00
16355;BME280;8287;51.644;8.494;2024-02-04T05:09:17;100875.28;;;12.09;100.00
16355;BME280;8287;51.644;8.494;2024-02-04T05:11:43;100870.19;;;11.99;100.00
16355;BME280;8287;51.644;8.494;2024-02-04T05:14:10;100865.84;;;12.03;100.00
16355;BME280;8287;51.644;8.494;2024-02-04T05:16:38;100866.63;;;12.04;100.00
16355;BME280;8287;51.644;8.494;2024-02-04T05:19:05;100874.59;;;12.04;100.00
16355;BME280;8287;51.644;8.494;2024-02-04T05:21:31;100882.63;;;12.12;100.00
16355;BME280;8287;51.644;8.494;2024-02-04T05:23:58;100876.66;;;12.07;100.00
16355;BME280;8287;51.644;8.494;2024-02-04T05:26:24;100863.19;;;12.03;100.00
16355;BME280;8287;51.644;8.494;2024-02-04T05:28:51;100872.28;;;12.11;100.00
16355;BME280;8287;51.644;8.494;2024-02-04T05:31:17;100848.38;;;12.11;100.00
16355;BME280;8287;51.644;8.494;2024-02-04T05:33:45;100851.03;;;12.11;100.00
16355;BME280;8287;51.644;8.494;2024-02-04T05:36:12;100855.16;;;12.17;100.00
16355;BME280;8287;51.644;8.494;2024-02-04T05:38:38;100842.97;;;12.16;100.00
16355;BME280;8287;51.644;8.494;2024-02-04T05:41:05;100847.91;;;12.09;100.00
16355;BME280;8287;51.644;8.494;2024-02-04T05:43:32;100848.91;;;12.13;100.00
16355;BME280;8287;51.644;8.494;2024-02-04T05:45:58;100848.56;;;12.14;100.00
16355;BME280;8287;51.644;8.494;2024-02-04T05:48:25;100846.09;;;12.18;100.00
16355;BME280;8287;51.644;8.494;2024-02-04T05:50:53;100842.97;;;12.16;100.00
16355;BME280;8287;51.644;8.494;2024-02-04T05:53:19;100840.19;;;12.21;100.00
16355;BME280;8287;51.644;8.494;2024-02-04T05:55:46;100821.28;;;12.22;100.00
16355;BME280;8287;51.644;8.494;2024-02-04T05:58:13;100820.19;;;12.23;100.00
16355;BME280;8287;51.644;8.494;2024-02-04T06:00:39;100809.72;;;12.18;100.00
16355;BME280;8287;51.644;8.494;2024-02-04T06:03:06;100817.53;;;12.23;100.00
16355;BME280;8287;51.644;8.494;2024-02-04T06:05:32;100822.69;;;12.20;100.00
16355;BME280;8287;51.644;8.494;2024-02-04T06:08:00;100820.81;;;12.20;100.00
16355;BME280;8287;51.644;8.494;2024-02-04T06:10:27;100816.88;;;12.18;100.00
16355;BME280;8287;51.644;8.494;2024-02-04T06:12:53;100808.31;;;12.21;100.00
16355;BME280;8287;51.644;8.494;2024-02-04T06:15:20;100824.19;;;12.12;100.00
16355;BME280;8287;51.644;8.494;2024-02-04T06:17:47;100829.06;;;12.19;100.00
16355;BME280;8287;51.644;8.494;2024-02-04T06:20:13;100818.09;;;12.12;100.00
16355;BME280;8287;51.644;8.494;2024-02-04T06:22:40;100822.72;;;12.06;100.00
16355;BME280;8287;51.644;8.494;2024-02-04T06:25:09;100818.22;;;12.07;100.00
16355;BME280;8287;51.644;8.494;2024-02-04T06:27:35;100830.88;;;12.10;100.00
16355;BME280;8287;51.644;8.494;2024-02-04T06:30:02;100848.34;;;12.02;100.00
16355;BME280;8287;51.644;8.494;2024-02-04T06:32:29;100851.66;;;12.08;100.00
16355;BME280;8287;51.644;8.494;2024-02-04T06:34:56;100835.34;;;12.01;100.00
16355;BME280;8287;51.644;8.494;2024-02-04T06:37:23;100831.97;;;12.09;100.00
16355;BME280;8287;51.644;8.494;2024-02-04T06:39:51;100823.63;;;12.02;100.00
16355;BME280;8287;51.644;8.494;2024-02-04T06:42:19;100837.28;;;12.09;100.00
16355;BME280;8287;51.644;8.494;2024-02-04T06:44:46;100838.09;;;12.09;100.00
16355;BME280;8287;51.644;8.494;2024-02-04T06:47:12;100843.03;;;12.02;100.00
16355;BME280;8287;51.644;8.494;2024-02-04T06:49:39;100841.88;;;11.95;100.00
16355;BME280;8287;51.644;8.494;2024-02-04T06:52:05;100836.72;;;11.98;100.00
16355;BME280;8287;51.644;8.494;2024-02-04T06:54:32;100828.94;;;12.02;100.00
16355;BME280;8287;51.644;8.494;2024-02-04T06:56:58;100821.97;;;12.06;100.00
16355;BME280;8287;51.644;8.494;2024-02-04T06:59:26;100798.34;;;12.04;100.00
16355;BME280;8287;51.644;8.494;2024-02-04T07:01:53;100786.63;;;12.05;100.00
16355;BME280;8287;51.644;8.494;2024-02-04T07:04:19;100792.59;;;12.11;100.00
16355;BME280;8287;51.644;8.494;2024-02-04T07:06:49;100789.28;;;12.05;100.00
16355;BME280;8287;51.644;8.494;2024-02-04T07:09:16;100792.75;;;12.06;100.00
16355;BME280;8287;51.644;8.494;2024-02-04T07:11:42;100792.59;;;12.11;100.00
16355;BME280;8287;51.644;8.494;2024-02-04T07:14:09;100785.72;;;12.10;100.00
16355;BME280;8287;51.644;8.494;2024-02-04T07:16:37;100779.66;;;12.09;100.00
16355;BME280;8287;51.644;8.494;2024-02-04T07:19:04;100784.97;;;12.09;100.00
16355;BME280;8287;51.644;8.494;2024-02-04T07:21:30;100792.28;;;12.04;100.00
16355;BME280;8287;51.644;8.494;2024-02-04T07:23:57;100794.31;;;12.07;100.00
16355;BME280;8287;51.644;8.494;2024-02-04T07:26:23;100797.75;;;12.07;100.00
16355;BME280;8287;51.644;8.494;2024-02-04T07:28:50;100793.22;;;12.08;100.00
16355;BME280;8287;51.644;8.494;2024-02-04T07:31:17;100788.53;;;12.05;100.00
16355;BME280;8287;51.644;8.494;2024-02-04T07:33:45;100771.31;;;12.02;100.00
16355;BME280;8287;51.644;8.494;2024-02-04T07:36:12;100777.72;;;12.01;100.00
16355;BME280;8287;51.644;8.494;2024-02-04T07:38:38;100779.91;;;11.99;100.00
16355;BME280;8287;51.644;8.494;2024-02-04T07:41:05;100769.28;;;11.99;100.00
16355;BME280;8287;51.644;8.494;2024-02-04T07:43:31;100766.63;;;11.99;100.00
16355;BME280;8287;51.644;8.494;2024-02-04T07:45:58;100754.28;;;12.03;100.00
16355;BME280;8287;51.644;8.494;2024-02-04T07:48:24;100769.13;;;12.04;100.00
16355;BME280;8287;51.644;8.494;2024-02-04T07:50:53;100763.97;;;11.99;100.00
16355;BME280;8287;51.644;8.494;2024-02-04T07:53:19;100762.03;;;11.91;100.00
16355;BME280;8287;51.644;8.494;2024-02-04T07:55:47;100754.53;;;11.93;100.00
16355;BME280;8287;51.644;8.494;2024-02-04T07:58:15;100748.84;;;11.86;100.00
16355;BME280;8287;51.644;8.494;2024-02-04T08:00:41;100749.47;;;11.83;100.00
16355;BME280;8287;51.644;8.494;2024-02-04T08:03:08;100760.84;;;11.84;100.00
16355;BME280;8287;51.644;8.494;2024-02-04T08:05:35;100754.78;;;11.83;100.00
16355;BME280;8287;51.644;8.494;2024-02-04T08:08:03;100764.41;;;11.79;100.00
16355;BME280;8287;51.644;8.494;2024-02-04T08:10:30;100769.63;;;11.84;100.00
16355;BME280;8287;51.644;8.494;2024-02-04T08:12:57;100778.97;;;11.82;100.00
16355;BME280;8287;51.644;8.494;2024-02-04T08:15:23;100776.22;;;11.73;100.00
16355;BME280;8287;51.644;8.494;2024-02-04T08:17:50;100772.34;;;11.71;100.00
16355;BME280;8287;51.644;8.494;2024-02-04T08:20:18;100758.63;;;11.77;100.00
16355;BME280;8287;51.644;8.494;2024-02-04T08:22:44;100750.47;;;11.74;100.00
16355;BME280;8287;51.644;8.494;2024-02-04T08:25:12;100757.25;;;11.80;100.00
16355;BME280;8287;51.644;8.494;2024-02-04T08:27:39;100753.22;;;11.82;100.00
16355;BME280;8287;51.644;8.494;2024-02-04T08:30:06;100758.16;;;11.75;100.00
16355;BME280;8287;51.644;8.494;2024-02-04T08:32:35;100770.16;;;11.73;100.00
16355;BME280;8287;51.644;8.494;2024-02-04T08:35:01;100753.56;;;11.67;100.00
16355;BME280;8287;51.644;8.494;2024-02-04T08:37:28;100751.75;;;11.76;100.00
16355;BME280;8287;51.644;8.494;2024-02-04T08:39:55;100765.75;;;11.68;100.00
16355;BME280;8287;51.644;8.494;2024-02-04T08:42:22;100761.28;;;11.77;100.00
16355;BME280;8287;51.644;8.494;2024-02-04T08:44:49;100756.78;;;11.78;100.00
16355;BME280;8287;51.644;8.494;2024-02-04T08:47:16;100753.03;;;11.79;100.00
16355;BME280;8287;51.644;8.494;2024-02-04T08:49:43;100771.63;;;11.79;100.00
16355;BME280;8287;51.644;8.494;2024-02-04T08:52:10;100756.53;;;11.88;100.00
16355;BME280;8287;51.644;8.494;2024-02-04T08:54:36;100758.56;;;11.91;100.00
16355;BME280;8287;51.644;8.494;2024-02-04T08:57:03;100762.78;;;11.92;100.00
16355;BME280;8287;51.644;8.494;2024-02-04T08:59:31;100757.97;;;11.94;100.00
16355;BME280;8287;51.644;8.494;2024-02-04T09:01:58;100765.53;;;12.00;100.00
16355;BME280;8287;51.644;8.494;2024-02-04T09:04:24;100773.31;;;11.97;100.00
16355;BME280;8287;51.644;8.494;2024-02-04T09:06:51;100788.34;;;12.01;100.00
16355;BME280;8287;51.644;8.494;2024-02-04T09:09:18;100803.41;;;12.14;100.00
16355;BME280;8287;51.644;8.494;2024-02-04T09:11:44;100796.50;;;12.05;100.00
16355;BME280;8287;51.644;8.494;2024-02-04T09:14:11;100799.03;;;11.88;100.00
16355;BME280;8287;51.644;8.494;2024-02-04T09:16:39;100801.41;;;11.76;100.00
16355;BME280;8287;51.644;8.494;2024-02-04T09:19:05;100792.84;;;11.79;100.00
16355;BME280;8287;51.644;8.494;2024-02-04T09:21:32;100794.16;;;11.68;100.00
16355;BME280;8287;51.644;8.494;2024-02-04T09:23:58;100809.72;;;11.61;100.00
16355;BME280;8287;51.644;8.494;2024-02-04T09:26:25;100803.34;;;11.48;100.00
16355;BME280;8287;51.644;8.494;2024-02-04T09:28:52;100809.22;;;11.45;100.00
16355;BME280;8287;51.644;8.494;2024-02-04T09:31:18;100791.44;;;11.46;100.00
16355;BME280;8287;51.644;8.494;2024-02-04T09:33:46;100798.78;;;11.49;100.00
16355;BME280;8287;51.644;8.494;2024-02-04T09:36:13;100796.84;;;11.41;100.00
16355;BME280;8287;51.644;8.494;2024-02-04T09:38:40;100799.06;;;11.47;100.00
16355;BME280;8287;51.644;8.494;2024-02-04T09:41:06;100788.13;;;11.40;100.00
16355;BME280;8287;51.644;8.494;2024-02-04T09:43:35;100783.38;;;11.37;100.00
16355;BME280;8287;51.644;8.494;2024-02-04T09:46:01;100787.91;;;11.37;100.00
16355;BME280;8287;51.644;8.494;2024-02-04T09:48:30;100790.16;;;11.43;100.00
16355;BME280;8287;51.644;8.494;2024-02-04T09:50:59;100786.31;;;11.49;100.00
16355;BME280;8287;51.644;8.494;2024-02-04T09:53:31;100788.28;;;11.44;100.00
16355;BME280;8287;51.644;8.494;2024-02-04T09:55:59;100790.06;;;11.48;100.00
16355;BME280;8287;51.644;8.494;2024-02-04T09:58:27;100792.34;;;11.41;100.00
16355;BME280;8287;51.644;8.494;2024-02-04T10:00:54;100774.25;;;11.43;100.00
16355;BME280;8287;51.644;8.494;2024-02-04T10:03:21;100771.97;;;11.50;100.00
16355;BME280;8287;51.644;8.494;2024-02-04T10:05:48;100786.81;;;11.51;100.00
16355;BME280;8287;51.644;8.494;2024-02-04T10:08:16;100786.91;;;11.46;100.00
16355;BME280;8287;51.644;8.494;2024-02-04T10:10:42;100801.63;;;11.52;100.00
16355;BME280;8287;51.644;8.494;2024-02-04T10:13:09;100807.22;;;11.64;100.00
16355;BME280;8287;51.644;8.494;2024-02-04T10:15:36;100805.28;;;11.70;100.00
16355;BME280;8287;51.644;8.494;2024-02-04T10:18:03;100797.38;;;11.78;100.00
16355;BME280;8287;51.644;8.494;2024-02-04T10:20:30;100799.41;;;11.81;100.00
16355;BME280;8287;51.644;8.494;2024-02-04T10:22:57;100796.66;;;11.86;100.00
16355;BME280;8287;51.644;8.494;2024-02-04T10:25:25;100788.22;;;11.84;100.00
16355;BME280;8287;51.644;8.494;2024-02-04T10:27:52;100785.84;;;11.83;100.00
16355;BME280;8287;51.644;8.494;2024-02-04T10:30:19;100790.72;;;11.89;100.00
16355;BME280;8287;51.644;8.494;2024-02-04T10:32:47;100791.41;;;11.95;100.00
16355;BME280;8287;51.644;8.494;2024-02-04T10:35:13;100791.91;;;11.97;100.00
16355;BME280;8287;51.644;8.494;2024-02-04T10:37:40;100788.91;;;11.98;100.00
16355;BME280;8287;51.644;8.494;2024-02-04T10:40:07;100778.31;;;11.98;100.00
16355;BME280;8287;51.644;8.494;2024-02-04T10:42:37;100768.09;;;11.92;100.00
16355;BME280;8287;51.644;8.494;2024-02-04T10:45:08;100771.97;;;12.08;100.00
16355;BME280;8287;51.644;8.494;2024-02-04T10:47:37;100771.13;;;11.99;100.00
16355;BME280;8287;51.644;8.494;2024-02-04T10:50:05;100766.28;;;12.01;100.00
16355;BME280;8287;51.644;8.494;2024-02-04T10:52:36;100768.47;;;11.99;100.00
16355;BME280;8287;51.644;8.494;2024-02-04T10:55:06;100764.19;;;11.89;100.00
16355;BME280;8287;51.644;8.494;2024-02-04T10:57:35;100775.78;;;11.93;100.00
16355;BME280;8287;51.644;8.494;2024-02-04T11:00:04;100774.13;;;11.84;100.00
16355;BME280;8287;51.644;8.494;2024-02-04T11:02:34;100771.97;;;11.86;100.00
16355;BME280;8287;51.644;8.494;2024-02-04T11:05:02;100782.72;;;11.81;100.00
16355;BME280;8287;51.644;8.494;2024-02-04T11:07:31;100788.03;;;11.81;100.00
16355;BME280;8287;51.644;8.494;2024-02-04T11:09:58;100780.66;;;11.78;100.00
16355;BME280;8287;51.644;8.494;2024-02-04T11:12:26;100778.59;;;11.75;100.00
16355;BME280;8287;51.644;8.494;2024-02-04T11:14:57;100778.59;;;11.75;100.00
16355;BME280;8287;51.644;8.494;2024-02-04T11:20:38;100767.41;;;11.78;100.00
16355;BME280;8287;51.644;8.494;2024-02-04T11:23:24;100765.59;;;11.87;100.00
16355;BME280;8287;51.644;8.494;2024-02-04T11:25:55;100775.53;;;11.81;100.00
16355;BME280;8287;51.644;8.494;2024-02-04T11:28:23;100758.09;;;11.89;100.00
16355;BME280;8287;51.644;8.494;2024-02-04T11:30:52;100750.78;;;11.94;100.00
16355;BME280;8287;51.644;8.494;2024-02-04T11:33:20;100740.97;;;11.95;100.00
16355;BME280;8287;51.644;8.494;2024-02-04T11:35:47;100743.47;;;12.00;100.00
16355;BME280;8287;51.644;8.494;2024-02-04T11:38:17;100739.16;;;12.04;100.00
16355;BME280;8287;51.644;8.494;2024-02-04T11:40:45;100737.59;;;12.03;100.00
16355;BME280;8287;51.644;8.494;2024-02-04T11:43:14;100741.31;;;12.02;100.00
16355;BME280;8287;51.644;8.494;2024-02-04T11:45:41;100738.78;;;11.97;100.00
16355;BME280;8287;51.644;8.494;2024-02-04T11:48:10;100739.63;;;11.84;100.00
16355;BME280;8287;51.644;8.494;2024-02-04T11:50:38;100740.41;;;11.84;100.00
16355;BME280;8287;51.644;8.494;2024-02-04T11:53:05;100730.56;;;11.85;100.00
16355;BME280;8287;51.644;8.494;2024-02-04T11:55:34;100726.06;;;11.85;100.00
16355;BME280;8287;51.644;8.494;2024-02-04T11:58:01;100719.59;;;11.78;100.00
16355;BME280;8287;51.644;8.494;2024-02-04T12:00:28;100726.97;;;11.81;100.00
16355;BME280;8287;51.644;8.494;2024-02-04T12:03:01;100721.34;;;11.82;100.00
16355;BME280;8287;51.644;8.494;2024-02-04T12:05:31;100729.13;;;11.79;100.00
16355;BME280;8287;51.644;8.494;2024-02-04T12:07:59;100736.13;;;11.75;100.00
16355;BME280;8287;51.644;8.494;2024-02-04T12:10:27;100732.38;;;11.76;100.00
16355;BME280;8287;51.644;8.494;2024-02-04T12:12:55;100728.06;;;11.80;100.00
16355;BME280;8287;51.644;8.494;2024-02-04T12:15:21;100731.78;;;11.79;100.00
16355;BME280;8287;51.644;8.494;2024-02-04T12:17:48;100719.59;;;11.78;100.00
16355;BME280;8287;51.644;8.494;2024-02-04T12:20:15;100717.06;;;11.73;100.00
16355;BME280;8287;51.644;8.494;2024-02-04T12:22:42;100701.38;;;11.63;100.00
16355;BME280;8287;51.644;8.494;2024-02-04T12:25:10;100713.06;;;11.84;100.00
16355;BME280;8287;51.644;8.494;2024-02-04T12:27:37;100709.03;;;11.86;100.00
16355;BME280;8287;51.644;8.494;2024-02-04T12:30:05;100717.19;;;11.90;100.00
16355;BME280;8287;51.644;8.494;2024-02-04T12:32:32;100714.34;;;11.86;100.00
16355;BME280;8287;51.644;8.494;2024-02-04T12:34:59;100718.38;;;11.84;100.00
16355;BME280;8287;51.644;8.494;2024-02-04T12:37:25;100709.31;;;11.85;100.00
16355;BME280;8287;51.644;8.494;2024-02-04T12:39:54;100714.06;;;11.88;100.00
16355;BME280;8287;51.644;8.494;2024-02-04T12:42:20;100714.06;;;11.88;100.00
16355;BME280;8287;51.644;8.494;2024-02-04T12:44:47;100715.63;;;11.89;100.00
16355;BME280;8287;51.644;8.494;2024-02-04T12:47:18;100698.59;;;11.90;100.00
16355;BME280;8287;51.644;8.494;2024-02-04T12:49:45;100694.38;;;11.89;100.00
16355;BME280;8287;51.644;8.494;2024-02-04T12:52:12;100699.59;;;12.02;100.00
16355;BME280;8287;51.644;8.494;2024-02-04T12:54:41;100679.75;;;12.00;100.00